Time;durP1;ratioP1;P1;durP2;ratioP2;P2;SDS_P1;SDS_P2;PMS_P1;PMS_P2;Temp;Humidity;BMP_temperature;BMP_pressure;BME280_temperature;BME280_humidity;BME280_pressure;Samples;Min_cycle;Max_cycle;Signal;HPM_P1;HPM_P2
2023/04/26 00:01:46;;;;;;;11.75;5.70;;;9.70;90.70;;;;;;5053014;28;20029;-67
2023/04/26 00:04:12;;;;;;;8.32;5.30;;;9.70;90.10;;;;;;5053469;28;20127;-67
2023/04/26 00:06:38;;;;;;;8.30;4.97;;;9.70;90.10;;;;;;5052728;28;20074;-68
2023/04/26 00:09:04;;;;;;;7.07;4.78;;;9.70;90.10;;;;;;5053176;28;20103;-67
2023/04/26 00:11:30;;;;;;;9.05;5.20;;;9.70;90.00;;;;;;5053084;28;20067;-67
2023/04/26 00:13:57;;;;;;;10.98;5.40;;;9.70;89.40;;;;;;5053056;28;20067;-67
2023/04/26 00:16:23;;;;;;;8.18;5.28;;;9.70;89.00;;;;;;5053105;28;20032;-67
2023/04/26 00:18:48;;;;;;;8.52;6.00;;;9.70;89.20;;;;;;5052646;28;20488;-67
2023/04/26 00:21:14;;;;;;;9.35;5.47;;;9.70;89.70;;;;;;5053005;28;20031;-67
2023/04/26 00:23:41;;;;;;;8.85;5.78;;;9.60;89.70;;;;;;5052948;28;20025;-67
2023/04/26 00:26:06;;;;;;;6.97;5.35;;;9.60;88.80;;;;;;5052696;28;20473;-67
2023/04/26 00:28:32;;;;;;;10.93;6.32;;;9.60;88.70;;;;;;5051695;28;20032;-67
2023/04/26 00:30:58;;;;;;;10.73;6.22;;;9.60;88.80;;;;;;5052827;28;20021;-67
2023/04/26 00:33:24;;;;;;;9.35;5.80;;;9.60;89.10;;;;;;5052955;28;20465;-66
2023/04/26 00:35:50;;;;;;;11.35;7.30;;;9.50;89.20;;;;;;5052471;28;20043;-66
2023/04/26 00:38:16;;;;;;;11.48;6.85;;;9.50;89.50;;;;;;5052972;28;20104;-67
2023/04/26 00:40:42;;;;;;;10.02;6.10;;;9.50;89.40;;;;;;5052830;28;20027;-67
2023/04/26 00:43:07;;;;;;;9.80;6.38;;;9.40;89.80;;;;;;5052653;28;20108;-67
2023/04/26 00:45:34;;;;;;;12.18;6.38;;;9.40;89.70;;;;;;5053028;28;20059;-67
2023/04/26 00:48:01;;;;;;;10.77;6.57;;;9.40;89.60;;;;;;5052367;28;20017;-67
2023/04/26 00:50:27;;;;;;;11.95;6.88;;;9.40;89.80;;;;;;5052309;28;20170;-67
2023/04/26 00:52:55;;;;;;;10.68;6.13;;;9.40;89.70;;;;;;5051911;28;20064;-67
2023/04/26 00:55:22;;;;;;;9.07;6.45;;;9.40;89.50;;;;;;5052591;28;20029;-67
2023/04/26 00:57:47;;;;;;;10.20;5.82;;;9.30;89.60;;;;;;5052334;28;20029;-67
2023/04/26 01:00:15;;;;;;;9.20;6.10;;;9.30;89.70;;;;;;5056575;28;20028;-67
2023/04/26 01:02:41;;;;;;;9.00;5.72;;;9.30;89.90;;;;;;5059136;28;20029;-67
2023/04/26 01:05:08;;;;;;;10.90;6.10;;;9.30;90.00;;;;;;5058702;28;20477;-66
2023/04/26 01:07:35;;;;;;;8.38;5.75;;;9.20;89.40;;;;;;5059269;28;20033;-67
2023/04/26 01:10:04;;;;;;;9.43;5.63;;;9.20;89.70;;;;;;5058765;28;20112;-66
2023/04/26 01:12:30;;;;;;;11.25;6.07;;;9.20;88.20;;;;;;5059023;28;20428;-67
2023/04/26 01:14:56;;;;;;;8.32;5.72;;;9.10;87.80;;;;;;5058635;28;20029;-67
2023/04/26 01:17:22;;;;;;;8.02;5.70;;;9.10;87.60;;;;;;5059130;28;20043;-66
2023/04/26 01:19:48;;;;;;;8.05;5.32;;;9.10;87.90;;;;;;5059027;28;20037;-67
2023/04/26 01:22:15;;;;;;;9.13;4.85;;;9.10;87.10;;;;;;5058795;28;20486;-67
2023/04/26 01:24:44;;;;;;;10.35;5.15;;;9.10;86.50;;;;;;5059100;28;20025;-67
2023/04/26 01:27:10;;;;;;;10.52;4.65;;;9.10;85.80;;;;;;5058867;28;20032;-66
2023/04/26 01:29:36;;;;;;;9.63;4.55;;;9.10;85.70;;;;;;5059010;28;20461;-67
2023/04/26 01:32:02;;;;;;;8.23;4.63;;;9.10;85.00;;;;;;5058653;28;20055;-68
2023/04/26 01:34:28;;;;;;;10.25;4.47;;;9.00;83.20;;;;;;5058940;28;20033;-67
2023/04/26 01:36:53;;;;;;;7.45;4.38;;;9.00;82.50;;;;;;5058392;28;20083;-67
2023/04/26 01:39:19;;;;;;;12.00;4.20;;;9.10;81.90;;;;;;5059082;28;20487;-66
2023/04/26 01:41:45;;;;;;;6.05;4.22;;;9.00;81.70;;;;;;5058909;28;20025;-68
2023/04/26 01:44:10;;;;;;;9.00;3.88;;;9.10;80.60;;;;;;5058625;28;20040;-68
2023/04/26 01:46:36;;;;;;;9.73;4.38;;;9.10;80.00;;;;;;5058900;28;20039;-68
2023/04/26 01:49:02;;;;;;;7.05;3.78;;;9.10;79.50;;;;;;5058507;28;20501;-68
2023/04/26 01:51:27;;;;;;;12.70;4.13;;;9.10;79.40;;;;;;5058785;28;20025;-68
2023/04/26 01:53:53;;;;;;;7.22;3.58;;;9.00;78.70;;;;;;5057135;28;20056;-68
2023/04/26 01:56:19;;;;;;;10.27;4.30;;;9.00;78.40;;;;;;5058655;28;20029;-67
2023/04/26 01:58:45;;;;;;;10.13;3.60;;;9.00;77.90;;;;;;5058018;28;20037;-67
2023/04/26 02:01:10;;;;;;;7.65;3.85;;;9.10;77.70;;;;;;5057214;28;20381;-67
2023/04/26 02:03:37;;;;;;;8.07;3.58;;;9.10;77.40;;;;;;5058871;28;20024;-67
2023/04/26 02:06:03;;;;;;;7.32;3.25;;;9.10;77.80;;;;;;5058315;28;20056;-67
2023/04/26 02:08:28;;;;;;;7.70;3.65;;;9.10;77.70;;;;;;5058603;28;20029;-67
2023/04/26 02:10:54;;;;;;;5.85;3.42;;;9.00;77.60;;;;;;5056487;28;20025;-68
2023/04/26 02:13:20;;;;;;;6.18;4.00;;;9.00;77.60;;;;;;5055377;28;20116;-67
2023/04/26 02:15:47;;;;;;;5.47;3.47;;;9.00;77.60;;;;;;5055395;28;20025;-66
2023/04/26 02:18:14;;;;;;;8.43;3.97;;;9.00;77.00;;;;;;5054997;28;20028;-67
2023/04/26 02:20:42;;;;;;;10.52;3.70;;;8.90;77.20;;;;;;5055272;28;20036;-66
2023/04/26 02:23:08;;;;;;;9.00;3.60;;;8.90;76.80;;;;;;5054848;28;20044;-68
2023/04/26 02:25:34;;;;;;;7.72;3.67;;;8.90;76.70;;;;;;5055344;28;20094;-67
2023/04/26 02:28:00;;;;;;;8.95;3.95;;;8.90;76.10;;;;;;5054576;28;20021;-68
2023/04/26 02:30:26;;;;;;;7.53;3.35;;;8.90;76.40;;;;;;5055351;28;20036;-68
2023/04/26 02:32:55;;;;;;;7.55;3.55;;;8.90;76.60;;;;;;5054625;28;20454;-67
2023/04/26 02:35:22;;;;;;;6.82;3.60;;;8.90;77.10;;;;;;5055288;28;20040;-67
2023/04/26 02:37:51;;;;;;;10.48;3.53;;;8.90;77.80;;;;;;5054930;28;20110;-67
2023/04/26 02:40:20;;;;;;;12.38;4.53;;;8.90;78.60;;;;;;5055116;28;20029;-67
2023/04/26 02:42:46;;;;;;;7.10;4.07;;;8.80;79.40;;;;;;5054873;28;20036;-67
2023/04/26 02:45:12;;;;;;;8.60;3.80;;;8.80;80.20;;;;;;5054285;28;20144;-67
2023/04/26 02:47:38;;;;;;;10.15;4.45;;;8.80;80.60;;;;;;5053559;28;20448;-67
2023/04/26 02:50:08;;;;;;;12.85;4.00;;;8.80;80.90;;;;;;5054482;28;20104;-67
2023/04/26 02:52:34;;;;;;;7.40;3.80;;;8.70;81.10;;;;;;5054799;28;20025;-67
2023/04/26 02:55:01;;;;;;;13.93;4.13;;;8.70;81.30;;;;;;5054159;28;20028;-68
2023/04/26 02:57:26;;;;;;;9.30;3.33;;;8.70;81.50;;;;;;5054284;28;20078;-67
2023/04/26 02:59:52;;;;;;;11.68;3.63;;;8.60;81.00;;;;;;5054333;28;20470;-73
2023/04/26 03:02:18;;;;;;;8.90;3.17;;;8.60;80.80;;;;;;5054549;28;20052;-67
2023/04/26 03:04:45;;;;;;;7.03;3.47;;;8.60;80.50;;;;;;5054251;28;20477;-67
2023/04/26 03:07:11;;;;;;;8.20;3.13;;;8.60;80.20;;;;;;5054040;28;20044;-67
2023/04/26 03:09:37;;;;;;;11.55;3.42;;;8.50;79.50;;;;;;5054546;28;20044;-67
2023/04/26 03:12:07;;;;;;;8.75;3.13;;;8.50;79.50;;;;;;5053985;28;20429;-68
2023/04/26 03:14:33;;;;;;;9.63;3.78;;;8.50;78.90;;;;;;5054310;28;20029;-67
2023/04/26 03:16:59;;;;;;;7.57;2.88;;;8.50;78.60;;;;;;5053827;28;20033;-68
2023/04/26 03:19:27;;;;;;;6.38;3.15;;;8.50;78.30;;;;;;5054040;28;20052;-68
2023/04/26 03:21:53;;;;;;;6.72;2.80;;;8.50;78.40;;;;;;5053899;28;20373;-67
2023/04/26 03:24:18;;;;;;;8.95;3.00;;;8.40;78.40;;;;;;5053673;28;20492;-69
2023/04/26 03:26:44;;;;;;;10.70;2.85;;;8.40;78.20;;;;;;5054035;28;20029;-70
2023/04/26 03:29:11;;;;;;;7.43;3.00;;;8.30;77.80;;;;;;5053621;28;20025;-68
2023/04/26 03:31:37;;;;;;;6.30;3.13;;;8.30;77.80;;;;;;5053982;28;20032;-67
2023/04/26 03:34:03;;;;;;;6.25;2.75;;;8.30;77.30;;;;;;5054437;28;20131;-68
2023/04/26 03:36:29;;;;;;;10.50;3.03;;;8.30;77.50;;;;;;5055195;28;20032;-67
2023/04/26 03:38:55;;;;;;;7.30;2.92;;;8.30;77.60;;;;;;5054507;28;20090;-68
2023/04/26 03:41:21;;;;;;;8.35;2.63;;;8.30;77.20;;;;;;5054122;28;20033;-67
2023/04/26 03:43:47;;;;;;;7.82;3.10;;;8.30;77.00;;;;;;5053751;28;20112;-68
2023/04/26 03:46:13;;;;;;;7.55;2.92;;;8.30;77.10;;;;;;5053567;28;20076;-68
2023/04/26 03:48:39;;;;;;;7.97;3.28;;;8.30;76.60;;;;;;5053419;28;20025;-68
2023/04/26 03:51:05;;;;;;;8.35;2.90;;;8.30;76.00;;;;;;5053194;28;20031;-67
2023/04/26 03:53:31;;;;;;;11.52;3.20;;;8.30;75.80;;;;;;5053505;28;20041;-67
2023/04/26 03:55:57;;;;;;;6.15;2.50;;;8.30;75.50;;;;;;5052619;28;20029;-69
2023/04/26 03:58:24;;;;;;;6.45;2.72;;;8.30;75.20;;;;;;5053234;28;20482;-67
2023/04/26 04:00:50;;;;;;;11.80;3.03;;;8.30;75.10;;;;;;5053452;28;20202;-67
2023/04/26 04:03:16;;;;;;;8.57;2.85;;;8.30;75.20;;;;;;5052663;28;20024;-67
2023/04/26 04:05:41;;;;;;;8.38;2.58;;;8.30;75.10;;;;;;5053383;28;20033;-67
2023/04/26 04:08:07;;;;;;;8.45;3.00;;;8.30;75.30;;;;;;5051612;28;20025;-67
2023/04/26 04:10:33;;;;;;;7.47;2.70;;;8.30;74.60;;;;;;5053207;28;20454;-67
2023/04/26 04:12:58;;;;;;;8.68;3.22;;;8.30;74.60;;;;;;5052518;28;20024;-68
2023/04/26 04:15:24;;;;;;;9.07;3.05;;;8.30;74.40;;;;;;5053565;28;20025;-67
2023/04/26 04:17:49;;;;;;;11.10;3.10;;;8.30;74.30;;;;;;5053163;28;20078;-67
2023/04/26 04:20:15;;;;;;;6.18;2.72;;;8.40;74.10;;;;;;5052361;28;20036;-67
2023/04/26 04:22:41;;;;;;;8.68;2.72;;;8.30;74.10;;;;;;5053066;28;20029;-67
2023/04/26 04:25:09;;;;;;;14.15;3.17;;;8.40;74.00;;;;;;5052640;28;20035;-67
2023/04/26 04:27:35;;;;;;;10.32;3.30;;;8.40;74.70;;;;;;5053203;28;20114;-67
2023/04/26 04:30:03;;;;;;;9.32;3.25;;;8.40;74.70;;;;;;5052654;28;20450;-67
2023/04/26 04:32:31;;;;;;;9.18;3.30;;;8.40;75.00;;;;;;5052816;28;20481;-67
2023/04/26 04:34:57;;;;;;;9.40;3.22;;;8.40;75.20;;;;;;5052160;28;20061;-67
2023/04/26 04:37:24;;;;;;;7.78;3.75;;;8.40;75.40;;;;;;5052325;28;20063;-67
2023/04/26 04:39:51;;;;;;;11.90;3.70;;;8.50;76.00;;;;;;5052797;28;20025;-68
2023/04/26 04:42:17;;;;;;;10.45;3.40;;;8.50;75.90;;;;;;5052366;28;20033;-66
2023/04/26 04:44:44;;;;;;;6.57;3.28;;;8.60;76.20;;;;;;5052315;28;20048;-68
2023/04/26 04:47:10;;;;;;;8.27;3.30;;;8.70;76.30;;;;;;5052323;28;20113;-68
2023/04/26 04:49:36;;;;;;;9.65;3.60;;;8.80;76.40;;;;;;5052356;28;20482;-68
2023/04/26 04:52:02;;;;;;;11.45;3.60;;;8.90;76.30;;;;;;5051407;28;20031;-67
2023/04/26 04:54:28;;;;;;;11.10;3.67;;;8.90;76.30;;;;;;5052599;28;20033;-67
2023/04/26 04:56:53;;;;;;;9.48;3.47;;;8.90;76.10;;;;;;5050576;28;20067;-67
2023/04/26 04:59:19;;;;;;;10.27;3.63;;;9.00;76.00;;;;;;5051836;28;20029;-67
2023/04/26 05:01:45;;;;;;;12.18;3.50;;;9.10;76.20;;;;;;5052487;28;20029;-67
2023/04/26 05:04:10;;;;;;;7.97;3.10;;;9.10;76.80;;;;;;5050741;28;20151;-67
2023/04/26 05:06:36;;;;;;;7.95;3.70;;;9.00;77.10;;;;;;5052323;28;20057;-67
2023/04/26 05:09:04;;;;;;;11.00;3.33;;;9.00;77.60;;;;;;5052267;28;20114;-73
2023/04/26 05:11:30;;;;;;;9.20;3.63;;;9.00;77.60;;;;;;5052279;28;20040;-66
2023/04/26 05:13:56;;;;;;;8.93;3.28;;;9.00;78.10;;;;;;5052115;28;20117;-67
2023/04/26 05:16:21;;;;;;;8.23;3.90;;;9.00;78.30;;;;;;5051534;28;20823;-67
2023/04/26 05:18:47;;;;;;;6.85;2.85;;;9.00;78.80;;;;;;5052327;28;20044;-67
2023/04/26 05:21:13;;;;;;;6.90;3.53;;;9.00;79.50;;;;;;5051546;28;20021;-67
2023/04/26 05:23:38;;;;;;;8.20;3.33;;;9.00;79.20;;;;;;5051902;28;20029;-67
2023/04/26 05:26:05;;;;;;;7.90;3.30;;;9.00;80.00;;;;;;5051793;28;20433;-68
2023/04/26 05:28:31;;;;;;;11.18;3.42;;;8.90;80.40;;;;;;5052276;28;20025;-67
2023/04/26 05:30:56;;;;;;;10.50;3.35;;;8.90;80.10;;;;;;5051941;28;20147;-67
2023/04/26 05:33:22;;;;;;;10.93;3.60;;;8.90;80.80;;;;;;5051762;28;20055;-67
2023/04/26 05:35:48;;;;;;;11.05;4.15;;;9.10;81.00;;;;;;5051827;28;20082;-68
2023/04/26 05:38:14;;;;;;;12.02;3.50;;;9.20;80.40;;;;;;5051753;28;20104;-68
2023/04/26 05:40:39;;;;;;;11.20;3.67;;;9.40;78.70;;;;;;5052209;28;20104;-68
2023/04/26 05:43:05;;;;;;;9.55;3.38;;;9.60;77.80;;;;;;5050455;28;20485;-69
2023/04/26 05:45:31;;;;;;;12.18;3.15;;;9.90;76.90;;;;;;5051967;28;20198;-66
2023/04/26 05:47:57;;;;;;;9.32;3.10;;;10.10;75.60;;;;;;5055133;28;20025;-67
2023/04/26 05:50:22;;;;;;;9.07;3.00;;;10.40;75.20;;;;;;5054896;28;20381;-68
2023/04/26 05:52:48;;;;;;;9.07;2.78;;;10.70;71.80;;;;;;5055712;28;20088;-68
2023/04/26 05:55:14;;;;;;;7.30;2.88;;;11.10;70.00;;;;;;5055288;28;20108;-66
2023/04/26 05:57:39;;;;;;;6.38;2.88;;;11.60;69.00;;;;;;5055804;28;20029;-67
2023/04/26 06:00:06;;;;;;;9.02;2.97;;;12.10;66.00;;;;;;5054784;28;20501;-66
2023/04/26 06:02:33;;;;;;;8.48;3.10;;;12.60;63.40;;;;;;5055597;28;20032;-67
2023/04/26 06:04:59;;;;;;;8.50;3.30;;;13.20;61.70;;;;;;5055347;28;20025;-67
2023/04/26 06:07:24;;;;;;;5.65;2.47;;;13.60;59.70;;;;;;5055072;28;20025;-67
2023/04/26 06:09:50;;;;;;;13.77;2.92;;;14.00;57.90;;;;;;5055514;28;20374;-67
2023/04/26 06:12:16;;;;;;;6.82;2.53;;;14.30;55.70;;;;;;5055022;28;20029;-67
2023/04/26 06:14:41;;;;;;;8.18;2.90;;;14.40;54.80;;;;;;5055088;28;20029;-67
2023/04/26 06:17:07;;;;;;;7.72;2.97;;;14.30;53.90;;;;;;5054750;28;20060;-73
2023/04/26 06:19:33;;;;;;;10.50;3.40;;;14.20;54.00;;;;;;5055252;28;20025;-67
2023/04/26 06:21:58;;;;;;;8.10;2.80;;;14.30;54.30;;;;;;5055150;28;20088;-67
2023/04/26 06:24:24;;;;;;;8.50;3.17;;;14.30;53.00;;;;;;5053032;28;20025;-67
2023/04/26 06:26:50;;;;;;;6.38;3.00;;;14.40;53.10;;;;;;5055066;28;20052;-67
2023/04/26 06:29:16;;;;;;;7.85;2.45;;;14.50;52.70;;;;;;5054359;28;20046;-67
2023/04/26 06:31:42;;;;;;;10.00;3.30;;;14.60;52.70;;;;;;5054640;28;20044;-67
2023/04/26 06:34:07;;;;;;;6.65;2.40;;;14.70;52.60;;;;;;5054873;28;20061;-67
2023/04/26 06:36:33;;;;;;;8.30;3.05;;;14.90;52.30;;;;;;5054184;28;20526;-67
2023/04/26 06:38:59;;;;;;;8.13;2.75;;;15.00;51.90;;;;;;5053973;28;20047;-66
2023/04/26 06:41:24;;;;;;;5.57;2.42;;;15.30;51.70;;;;;;5053550;28;20070;-67
2023/04/26 06:43:50;;;;;;;6.32;2.58;;;15.50;51.90;;;;;;5053899;28;20473;-68
2023/04/26 06:46:16;;;;;;;8.50;3.17;;;15.90;50.00;;;;;;5053768;28;20461;-68
2023/04/26 06:48:42;;;;;;;7.18;2.55;;;16.20;49.30;;;;;;5054056;28;20068;-67
2023/04/26 06:51:09;;;;;;;7.88;2.70;;;16.60;47.80;;;;;;5054028;28;20060;-67
2023/04/26 06:53:35;;;;;;;8.88;2.70;;;17.10;46.10;;;;;;5054319;28;20021;-68
2023/04/26 06:56:01;;;;;;;9.00;2.63;;;17.60;45.10;;;;;;5053962;28;20544;-68
2023/04/26 06:58:27;;;;;;;5.50;2.83;;;18.10;43.50;;;;;;5051655;28;20029;-68
2023/04/26 07:00:52;;;;;;;9.38;3.20;;;18.60;43.10;;;;;;5053481;28;20021;-68
2023/04/26 07:03:18;;;;;;;6.22;2.80;;;19.20;41.40;;;;;;5054040;28;20024;-68
2023/04/26 07:05:43;;;;;;;12.07;3.22;;;19.60;40.30;;;;;;5053833;28;20035;-67
2023/04/26 07:08:09;;;;;;;7.75;3.22;;;19.60;39.60;;;;;;5054693;28;20032;-67
2023/04/26 07:10:35;;;;;;;9.25;3.05;;;20.30;38.90;;;;;;5053901;28;20033;-68
2023/04/26 07:13:00;;;;;;;10.93;3.55;;;20.60;38.50;;;;;;5054526;28;20025;-67
2023/04/26 07:15:27;;;;;;;8.00;2.97;;;21.00;37.70;;;;;;5053840;28;20075;-67
2023/04/26 07:17:52;;;;;;;6.90;2.40;;;21.20;36.50;;;;;;5054179;28;20036;-67
2023/04/26 07:20:19;;;;;;;4.13;2.05;;;21.10;36.90;;;;;;5053653;28;20029;-67
2023/04/26 07:22:46;;;;;;;6.30;2.47;;;21.40;35.30;;;;;;5053875;28;20429;-67
2023/04/26 07:25:12;;;;;;;5.70;2.10;;;21.60;34.10;;;;;;5053867;28;20458;-72
2023/04/26 07:27:37;;;;;;;5.75;2.63;;;22.00;33.80;;;;;;5054292;28;20040;-67
2023/04/26 07:30:04;;;;;;;4.18;2.30;;;22.50;33.50;;;;;;5053858;28;20028;-67
2023/04/26 07:32:30;;;;;;;5.47;2.50;;;21.70;33.90;;;;;;5053589;28;20120;-67
2023/04/26 07:34:56;;;;;;;4.00;2.10;;;22.10;33.30;;;;;;5053562;28;20438;-67
2023/04/26 07:37:22;;;;;;;6.45;2.30;;;22.30;33.80;;;;;;5053038;28;20045;-68
2023/04/26 07:39:47;;;;;;;8.43;2.38;;;22.50;32.70;;;;;;5053581;28;20031;-68
2023/04/26 07:42:13;;;;;;;4.05;2.20;;;22.40;31.60;;;;;;5053480;28;20101;-73
2023/04/26 07:44:39;;;;;;;6.45;2.17;;;21.70;32.00;;;;;;5053455;28;20060;-67
2023/04/26 07:47:11;;;;;;;8.32;2.58;;;21.90;32.30;;;;;;5053662;28;20504;-67
2023/04/26 07:49:36;;;;;;;5.68;2.35;;;22.30;32.30;;;;;;5053257;28;20028;-67
2023/04/26 07:52:02;;;;;;;6.75;2.78;;;22.10;32.00;;;;;;5053303;28;20033;-67
2023/04/26 07:54:27;;;;;;;4.45;2.50;;;21.70;32.10;;;;;;5052468;28;20036;-67
2023/04/26 07:56:54;;;;;;;5.50;2.67;;;20.70;33.10;;;;;;5053076;28;20122;-67
2023/04/26 07:59:20;;;;;;;7.55;2.80;;;20.10;33.30;;;;;;5053045;28;20111;-67
2023/04/26 08:01:45;;;;;;;9.32;2.63;;;18.90;34.20;;;;;;5053284;28;20546;-67
2023/04/26 08:04:11;;;;;;;10.80;2.67;;;17.90;35.20;;;;;;5053428;28;20033;-67
2023/04/26 08:06:38;;;;;;;8.60;3.20;;;17.10;37.30;;;;;;5052961;28;20443;-67
2023/04/26 08:09:04;;;;;;;7.20;3.13;;;16.90;38.70;;;;;;5052237;28;20071;-67
2023/04/26 08:11:29;;;;;;;4.53;2.70;;;16.50;39.30;;;;;;5052656;28;20412;-67
2023/04/26 08:13:55;;;;;;;10.23;2.88;;;15.90;40.90;;;;;;5052880;28;20033;-67
2023/04/26 08:16:21;;;;;;;4.93;2.53;;;15.40;41.90;;;;;;5052788;28;20466;-68
2023/04/26 08:18:46;;;;;;;8.10;2.70;;;14.90;43.90;;;;;;5053211;28;20024;-67
2023/04/26 08:21:12;;;;;;;5.25;2.50;;;14.50;44.90;;;;;;5053017;28;20025;-67
2023/04/26 08:23:38;;;;;;;9.48;3.08;;;14.30;45.80;;;;;;5052687;28;20017;-67
2023/04/26 08:26:05;;;;;;;8.00;2.97;;;14.00;45.70;;;;;;5053052;28;20029;-67
2023/04/26 08:28:30;;;;;;;8.27;2.53;;;13.80;46.10;;;;;;5052841;28;20021;-66
2023/04/26 08:30:57;;;;;;;9.48;3.20;;;13.50;47.50;;;;;;5052911;28;20056;-66
2023/04/26 08:33:22;;;;;;;6.90;3.35;;;13.20;48.50;;;;;;5052091;28;20475;-67
2023/04/26 08:35:48;;;;;;;8.07;3.47;;;13.00;50.30;;;;;;5052774;28;20040;-67
2023/04/26 08:38:14;;;;;;;5.30;3.17;;;12.80;51.30;;;;;;5052832;28;20025;-67
2023/04/26 08:40:42;;;;;;;10.70;2.80;;;13.10;52.10;;;;;;5052408;28;20025;-66
2023/04/26 08:43:09;;;;;;;8.68;3.15;;;13.40;49.80;;;;;;5052473;28;20518;-67
2023/04/26 08:45:37;;;;;;;7.00;3.10;;;13.60;49.20;;;;;;5051345;28;20139;-67
2023/04/26 08:48:07;;;;;;;6.68;2.67;;;13.80;47.90;;;;;;5051865;28;20029;-67
2023/04/26 08:50:35;;;;;;;4.50;2.63;;;13.80;47.20;;;;;;5051294;28;20098;-67
2023/04/26 08:53:01;;;;;;;6.32;2.80;;;13.80;46.10;;;;;;5050162;28;20469;-66
2023/04/26 08:55:27;;;;;;;5.38;2.60;;;13.70;45.30;;;;;;5051412;28;20040;-68
2023/04/26 08:57:53;;;;;;;5.47;2.58;;;13.70;45.70;;;;;;5052587;28;20090;-67
2023/04/26 09:00:20;;;;;;;8.25;2.60;;;13.50;46.10;;;;;;5052231;28;20048;-67
2023/04/26 09:02:51;;;;;;;6.15;2.20;;;13.30;45.80;;;;;;5052205;28;20504;-67
2023/04/26 09:05:23;;;;;;;7.05;2.55;;;13.10;45.70;;;;;;5052812;28;20025;-67
2023/04/26 09:07:50;;;;;;;5.25;2.20;;;13.00;46.70;;;;;;5052445;28;20033;-67
2023/04/26 09:10:20;;;;;;;8.63;2.78;;;12.80;47.40;;;;;;5052335;28;20025;-67
2023/04/26 09:12:45;;;;;;;8.63;2.70;;;12.70;47.40;;;;;;5051225;28;20021;-68
2023/04/26 09:15:14;;;;;;;6.95;2.72;;;12.80;48.50;;;;;;5052081;28;20036;-67
2023/04/26 09:17:40;;;;;;;6.65;2.50;;;12.80;49.30;;;;;;5051896;28;20040;-68
2023/04/26 09:20:28;;;;;;;6.05;2.33;;;12.90;49.80;;;;;;5052561;28;20025;-67
2023/04/26 09:23:05;;;;;;;8.73;2.88;;;12.80;48.40;;;;;;5056333;28;20071;-67
2023/04/26 09:25:31;;;;;;;4.95;2.63;;;12.80;48.30;;;;;;5055766;28;20033;-68
2023/04/26 09:27:58;;;;;;;3.85;1.92;;;13.00;49.30;;;;;;5056379;28;20099;-67
2023/04/26 09:30:25;;;;;;;6.43;2.70;;;13.00;49.60;;;;;;5055971;28;20036;-68
2023/04/26 09:32:54;;;;;;;5.22;2.42;;;13.10;46.30;;;;;;5056223;28;20389;-68
2023/04/26 09:35:26;;;;;;;5.70;2.15;;;13.00;45.90;;;;;;5056084;28;20039;-68
2023/04/26 09:37:58;;;;;;;5.75;2.50;;;12.90;47.00;;;;;;5056146;28;20066;-68
2023/04/26 09:40:25;;;;;;;5.32;2.72;;;12.70;47.50;;;;;;5055336;28;20435;-68
2023/04/26 09:43:05;;;;;;;8.40;2.75;;;12.60;46.80;;;;;;5055720;28;20033;-67
2023/04/26 09:45:41;;;;;;;4.60;2.33;;;12.50;47.40;;;;;;5055549;28;20053;-67
2023/04/26 09:48:16;;;;;;;4.55;2.22;;;12.40;48.70;;;;;;5055510;28;20738;-67
2023/04/26 09:50:44;;;;;;;6.35;2.97;;;12.40;49.60;;;;;;5055010;28;20490;-67
2023/04/26 09:53:10;;;;;;;4.32;2.72;;;12.50;49.90;;;;;;5055873;28;20044;-69
2023/04/26 09:55:36;;;;;;;5.03;2.50;;;12.50;48.20;;;;;;5055307;28;20102;-68
2023/04/26 09:58:09;;;;;;;8.25;2.40;;;12.70;48.40;;;;;;5055838;28;20029;-67
2023/04/26 10:00:38;;;;;;;11.15;2.90;;;12.70;48.30;;;;;;5055286;28;20032;-67
2023/04/26 10:03:06;;;;;;;6.47;2.88;;;12.80;47.90;;;;;;5055567;28;20067;-68
2023/04/26 10:05:32;;;;;;;4.05;2.90;;;12.90;48.20;;;;;;5055121;28;20033;-67
2023/04/26 10:07:58;;;;;;;7.03;2.80;;;12.90;48.80;;;;;;5055585;28;20029;-67
2023/04/26 10:10:24;;;;;;;7.95;2.60;;;12.90;49.20;;;;;;5054022;28;20029;-69
2023/04/26 10:12:49;;;;;;;6.03;2.47;;;12.90;49.00;;;;;;5055305;28;20029;-68
2023/04/26 10:15:15;;;;;;;6.82;2.65;;;13.00;49.10;;;;;;5055433;28;20052;-68
2023/04/26 10:17:41;;;;;;;4.72;2.40;;;13.00;49.20;;;;;;5054894;28;20025;-67
2023/04/26 10:20:11;;;;;;;4.18;2.88;;;13.00;48.70;;;;;;5055427;28;20028;-67
2023/04/26 10:22:43;;;;;;;6.43;3.10;;;13.10;49.40;;;;;;5054589;28;20481;-67
2023/04/26 10:25:09;;;;;;;6.53;2.92;;;13.10;48.80;;;;;;5054695;28;20036;-66
2023/04/26 10:27:44;;;;;;;7.07;2.72;;;13.10;48.90;;;;;;5054569;28;20025;-67
2023/04/26 10:30:12;;;;;;;6.35;2.75;;;13.10;49.90;;;;;;5054516;28;20112;-68
2023/04/26 10:32:56;;;;;;;7.78;2.72;;;13.20;50.70;;;;;;5053508;28;20025;-66
2023/04/26 10:35:32;;;;;;;7.03;3.05;;;13.30;50.20;;;;;;5054875;28;20112;-67
2023/04/26 10:38:00;;;;;;;5.25;2.58;;;13.40;51.10;;;;;;5055119;28;20028;-68
2023/04/26 10:40:39;;;;;;;5.85;2.97;;;13.50;50.80;;;;;;5054152;28;20429;-68
2023/04/26 10:43:12;;;;;;;6.45;2.67;;;13.50;49.70;;;;;;5054912;28;20532;-68
2023/04/26 10:45:39;;;;;;;6.07;2.50;;;13.50;48.90;;;;;;5054232;28;20052;-67
2023/04/26 10:48:14;;;;;;;7.88;2.63;;;13.50;47.30;;;;;;5054320;28;20025;-67
2023/04/26 10:50:59;;;;;;;7.55;2.97;;;13.40;48.40;;;;;;5054207;28;20064;-68
2023/04/26 10:53:26;;;;;;;7.25;2.72;;;13.30;48.10;;;;;;5054750;28;20037;-67
2023/04/26 10:55:53;;;;;;;6.03;3.13;;;13.30;48.60;;;;;;5054449;28;20132;-67
2023/04/26 10:58:32;;;;;;;6.68;2.78;;;13.20;49.50;;;;;;5054518;28;20084;-66
2023/04/26 11:01:06;;;;;;;4.55;2.20;;;13.20;50.20;;;;;;5054607;28;20035;-67
2023/04/26 11:03:32;;;;;;;5.40;2.55;;;13.20;49.20;;;;;;5053968;28;20025;-67
2023/04/26 11:05:58;;;;;;;5.68;2.75;;;13.30;49.60;;;;;;5054540;28;20115;-67
2023/04/26 11:08:29;;;;;;;7.03;2.78;;;13.30;51.30;;;;;;5054346;28;20025;-66
2023/04/26 11:11:04;;;;;;;5.68;2.10;;;13.40;49.90;;;;;;5054464;28;20033;-67
2023/04/26 11:13:42;;;;;;;9.30;2.70;;;13.50;47.90;;;;;;5053538;28;20091;-67
2023/04/26 11:16:09;;;;;;;5.72;2.40;;;13.50;46.90;;;;;;5034200;28;20030;-67
2023/04/26 11:18:37;;;;;;;3.97;1.90;;;13.40;46.00;;;;;;5033611;28;20496;-66
2023/04/26 11:21:05;;;;;;;3.22;2.00;;;13.40;45.20;;;;;;5034418;28;20452;-67
2023/04/26 11:23:31;;;;;;;3.78;2.15;;;13.30;46.00;;;;;;5033913;28;20037;-67
2023/04/26 11:26:04;;;;;;;3.40;2.13;;;13.30;47.70;;;;;;5033783;28;20412;-68
2023/04/26 11:28:32;;;;;;;7.03;2.45;;;13.30;48.10;;;;;;5033783;28;20025;-68
2023/04/26 11:30:58;;;;;;;3.20;2.10;;;13.30;48.60;;;;;;5034453;28;20112;-67
2023/04/26 11:33:24;;;;;;;5.07;2.03;;;13.30;48.20;;;;;;5033919;28;20026;-67
2023/04/26 11:35:53;;;;;;;6.80;2.13;;;13.30;47.40;;;;;;5033487;28;20080;-68
2023/04/26 11:38:24;;;;;;;8.43;2.08;;;13.40;46.70;;;;;;5034012;28;20358;-67
2023/04/26 11:40:57;;;;;;;6.73;1.83;;;13.50;47.70;;;;;;5033676;28;20820;-67
2023/04/26 11:43:33;;;;;;;3.78;1.73;;;13.50;46.70;;;;;;5034090;28;20033;-67
2023/04/26 11:46:00;;;;;;;5.60;1.65;;;13.50;45.60;;;;;;5033559;28;20057;-67
2023/04/26 11:48:27;;;;;;;5.90;2.00;;;13.60;45.10;;;;;;5033643;28;20335;-67
2023/04/26 11:50:53;;;;;;;5.63;1.80;;;13.60;43.30;;;;;;5033200;28;20255;-67
2023/04/26 11:53:19;;;;;;;5.13;2.38;;;13.60;44.40;;;;;;5033501;28;20188;-68
2023/04/26 11:55:44;;;;;;;6.78;1.98;;;13.60;43.70;;;;;;5043996;28;20032;-66
2023/04/26 11:58:13;;;;;;;2.88;1.42;;;13.60;42.30;;;;;;5053441;28;20385;-66
2023/04/26 12:00:57;;;;;;;3.55;1.80;;;13.60;41.50;;;;;;5052807;28;20390;-66
2023/04/26 12:03:27;;;;;;;6.97;1.55;;;13.50;42.40;;;;;;5053278;28;20033;-67
2023/04/26 12:05:55;;;;;;;5.85;2.05;;;13.50;41.90;;;;;;5052898;28;20059;-66
2023/04/26 12:08:24;;;;;;;5.00;1.80;;;13.50;42.10;;;;;;5053182;28;20035;-68
2023/04/26 12:10:50;;;;;;;2.85;1.40;;;13.50;41.90;;;;;;5052722;28;20075;-68
2023/04/26 12:13:16;;;;;;;8.43;2.42;;;13.50;41.60;;;;;;5052902;28;20037;-66
2023/04/26 12:15:41;;;;;;;6.90;1.70;;;13.50;42.30;;;;;;5052654;28;20041;-67
2023/04/26 12:18:09;;;;;;;6.35;1.45;;;13.50;42.00;;;;;;5052861;28;20047;-67
2023/04/26 12:20:40;;;;;;;3.25;1.80;;;13.60;43.80;;;;;;5052639;28;20025;-67
2023/04/26 12:23:10;;;;;;;4.15;1.45;;;13.60;42.90;;;;;;5053066;28;20473;-66
2023/04/26 12:25:38;;;;;;;3.22;1.50;;;13.60;43.50;;;;;;5052811;28;20482;-67
2023/04/26 12:28:07;;;;;;;4.70;1.50;;;13.60;42.00;;;;;;5052702;28;20025;-66
2023/04/26 12:30:33;;;;;;;4.95;1.42;;;13.60;43.90;;;;;;5052615;28;20115;-74
2023/04/26 12:32:58;;;;;;;5.65;1.70;;;13.60;44.50;;;;;;5053188;28;20121;-66
2023/04/26 12:35:24;;;;;;;3.63;1.63;;;13.70;44.70;;;;;;5053052;28;20382;-66
2023/04/26 12:37:52;;;;;;;4.00;1.75;;;13.60;42.60;;;;;;5052345;28;20028;-66
2023/04/26 12:40:21;;;;;;;3.53;1.90;;;13.60;43.10;;;;;;5052978;28;20492;-67
2023/04/26 12:42:47;;;;;;;3.05;2.00;;;13.60;44.20;;;;;;5052363;28;20051;-66
2023/04/26 12:45:13;;;;;;;4.07;2.05;;;13.70;45.20;;;;;;5052328;28;20045;-66
2023/04/26 12:47:39;;;;;;;7.25;2.22;;;13.70;45.80;;;;;;5052288;28;20380;-68
2023/04/26 12:50:05;;;;;;;3.78;1.65;;;13.70;45.90;;;;;;5052235;28;20020;-68